• Join FlightAware (Why Join?)
  • Login
  • US Flag 
04:30PM EDT


 

Airport Tracker/Info


-or-


 

Live Flight TrackerFlight Track Log ✈ CTL17 ✈ 14-May-2013 ✈ KPTK - KMBS

Flight Track Log - Related Links

Times and Time Zones

All times are in EDT time to prevent confusion due to time zone crossing. See the CTL17 flight status page for this flight to view local times or setup timezone preferences in your user account.

Time Position Orientation Groundspeed Altitude Reporting Facility
EDT Latitude Longitude Course Direction KTS MPH feet Rate Location/Type
04:07PM 42.6656 -83.3983 39° Northeast 118 136 1,500  Level Cleveland Center
04:08PM 42.6956 -83.3658 39° Northeast 146 168 2,700 840 Climbing Cleveland Center
04:10PM 42.7565 -83.3923 14° North  Level FlightAware Approximate
04:17PM 43.0170 -83.4954 321° Northwest  Level FlightAware Approximate
04:18PM 43.0498 -83.5316 321° Northwest  Level FlightAware Approximate
04:19PM 43.0826 -83.5679 321° Northwest  Level FlightAware Approximate
04:20PM 43.1154 -83.6042 321° Northwest  Level FlightAware Approximate
04:21PM 43.1482 -83.6405 321° Northwest  Level FlightAware Approximate
04:22PM 43.1809 -83.6769 321° Northwest  Level FlightAware Approximate
04:23PM 43.2137 -83.7133 321° Northwest  Level FlightAware Approximate
04:24PM 43.2453 -83.7516 318° Northwest  Level FlightAware Approximate
04:25PM 43.2768 -83.7901 318° Northwest  Level FlightAware Approximate
04:26PM 43.3083 -83.8286 318° Northwest  Level FlightAware Approximate
04:27PM 43.3398 -83.8671 318° Northwest  Level FlightAware Approximate
04:28PM 43.3717 -83.9050 324° Northwest  Level FlightAware Approximate
04:29PM 43.4058 -83.9391 324° Northwest  Level FlightAware Approximate
04:30PM 43.4399 -83.9732 324° Northwest  Level FlightAware Approximate
04:31PM 43.4740 -84.0073 324° Northwest  Level FlightAware Approximate
04:32PM 43.5057 -84.0448 305° West  Level FlightAware Approximate
04:33PM 43.5167 -84.0667 305° West  Level FlightAware Approximate
04:34PM 43.5329 -84.0796 305° West  Level Estimated
04:35PM 43.5329 -84.0796 305° West  Level Estimated
04:36PM 43.5329 -84.0796 305° West  Level Estimated